createdAt,value
2022-10-07T00:00:29.771Z,100.00
2022-10-07T00:02:58.654Z,100.00
2022-10-07T00:05:27.520Z,100.00
2022-10-07T00:07:57.839Z,100.00
2022-10-07T00:10:27.564Z,100.00
2022-10-07T00:12:57.989Z,100.00
2022-10-07T00:15:29.555Z,100.00
2022-10-07T00:18:00.249Z,100.00
2022-10-07T00:20:29.127Z,100.00
2022-10-07T00:22:57.728Z,100.00
2022-10-07T00:25:27.070Z,100.00
2022-10-07T00:27:57.189Z,100.00
2022-10-07T00:30:25.947Z,100.00
2022-10-07T00:32:56.626Z,100.00
2022-10-07T00:35:25.156Z,100.00
2022-10-07T00:37:53.596Z,100.00
2022-10-07T00:40:22.096Z,100.00
2022-10-07T00:42:51.534Z,100.00
2022-10-07T00:45:21.396Z,100.00
2022-10-07T00:47:52.194Z,100.00
2022-10-07T00:50:29.658Z,100.00
2022-10-07T00:53:01.843Z,100.00
2022-10-07T00:55:32.122Z,100.00
2022-10-07T00:58:05.335Z,100.00
2022-10-07T01:00:33.818Z,100.00
2022-10-07T01:03:02.231Z,100.00
2022-10-07T01:05:32.489Z,100.00
2022-10-07T01:08:01.584Z,100.00
2022-10-07T01:10:38.702Z,100.00
2022-10-07T01:13:15.557Z,100.00
2022-10-07T01:15:53.634Z,100.00
2022-10-07T01:18:29.386Z,100.00
2022-10-07T01:21:03.037Z,100.00
2022-10-07T01:23:46.757Z,100.00
2022-10-07T01:26:51.662Z,100.00
2022-10-07T01:29:24.816Z,100.00
2022-10-07T01:31:58.502Z,100.00
2022-10-07T01:34:28.184Z,100.00
2022-10-07T01:36:59.815Z,100.00
2022-10-07T01:39:33.118Z,100.00
2022-10-07T01:42:03.503Z,100.00
2022-10-07T01:44:33.055Z,100.00
2022-10-07T01:47:01.791Z,100.00
2022-10-07T01:49:30.933Z,100.00
2022-10-07T01:52:24.653Z,100.00
2022-10-07T01:55:12.107Z,100.00
2022-10-07T01:57:53.118Z,100.00
2022-10-07T02:00:21.688Z,100.00
2022-10-07T02:03:06.053Z,100.00
2022-10-07T02:05:46.869Z,100.00
2022-10-07T02:08:27.993Z,100.00
2022-10-07T02:11:09.925Z,100.00
2022-10-07T02:13:49.227Z,100.00
2022-10-07T02:16:20.435Z,100.00
2022-10-07T02:18:51.998Z,100.00
2022-10-07T02:21:29.005Z,100.00
2022-10-07T02:24:00.228Z,100.00
2022-10-07T02:26:32.175Z,100.00
2022-10-07T02:29:06.290Z,100.00
2022-10-07T02:31:36.351Z,100.00
2022-10-07T02:34:07.825Z,100.00
2022-10-07T02:36:39.563Z,100.00
2022-10-07T02:39:08.967Z,100.00
2022-10-07T02:41:45.122Z,100.00
2022-10-07T02:44:26.285Z,100.00
2022-10-07T02:47:00.751Z,100.00
2022-10-07T02:49:31.624Z,100.00
2022-10-07T02:52:05.633Z,100.00
2022-10-07T02:54:38.694Z,100.00
2022-10-07T02:57:09.010Z,100.00
2022-10-07T02:59:41.030Z,100.00
2022-10-07T03:02:15.977Z,100.00
2022-10-07T03:04:46.842Z,100.00
2022-10-07T03:07:18.346Z,100.00
2022-10-07T03:09:47.141Z,100.00
2022-10-07T03:12:17.287Z,100.00
2022-10-07T03:14:50.277Z,100.00
2022-10-07T03:17:20.216Z,100.00
2022-10-07T03:19:49.726Z,100.00
2022-10-07T03:22:21.832Z,100.00
2022-10-07T03:24:50.488Z,100.00
2022-10-07T03:27:18.633Z,100.00
2022-10-07T03:29:49.126Z,100.00
2022-10-07T03:32:17.403Z,100.00
2022-10-07T03:34:45.865Z,100.00
2022-10-07T03:37:14.301Z,100.00
2022-10-07T03:39:42.774Z,100.00
2022-10-07T03:42:12.316Z,100.00
2022-10-07T03:44:40.872Z,100.00
2022-10-07T03:47:11.076Z,100.00
2022-10-07T03:49:41.756Z,100.00
2022-10-07T03:52:10.282Z,100.00
2022-10-07T03:54:38.720Z,100.00
2022-10-07T03:57:27.816Z,100.00
2022-10-07T03:59:56.045Z,100.00
2022-10-07T04:02:26.167Z,100.00
2022-10-07T04:04:54.668Z,100.00
2022-10-07T04:07:23.182Z,100.00
2022-10-07T04:09:54.571Z,100.00
2022-10-07T04:12:23.211Z,100.00
2022-10-07T04:14:51.973Z,100.00
2022-10-07T04:17:20.720Z,100.00
2022-10-07T04:19:50.527Z,100.00
2022-10-07T04:22:19.000Z,100.00
2022-10-07T04:25:07.937Z,100.00
2022-10-07T04:27:51.307Z,100.00
2022-10-07T04:30:20.385Z,100.00
2022-10-07T04:32:50.809Z,100.00
2022-10-07T04:35:22.504Z,100.00
2022-10-07T04:37:52.287Z,100.00
2022-10-07T04:40:22.381Z,100.00
2022-10-07T04:43:08.481Z,100.00
2022-10-07T04:45:38.150Z,100.00
2022-10-07T04:48:07.869Z,100.00
2022-10-07T04:50:42.454Z,100.00
2022-10-07T04:53:14.472Z,100.00
2022-10-07T04:55:45.921Z,100.00
2022-10-07T04:58:14.772Z,100.00
2022-10-07T05:00:44.756Z,100.00
2022-10-07T05:03:13.733Z,100.00
2022-10-07T05:05:44.878Z,100.00
2022-10-07T05:08:14.937Z,100.00
2022-10-07T05:10:46.604Z,100.00
2022-10-07T05:13:17.592Z,100.00
2022-10-07T05:15:53.211Z,100.00
2022-10-07T05:18:22.640Z,100.00
2022-10-07T05:20:53.049Z,100.00
2022-10-07T05:23:28.150Z,100.00
2022-10-07T05:26:02.081Z,100.00
2022-10-07T05:28:31.913Z,100.00
2022-10-07T05:31:06.246Z,100.00
2022-10-07T05:33:34.615Z,100.00
2022-10-07T05:36:04.952Z,100.00
2022-10-07T05:38:34.109Z,100.00
2022-10-07T05:41:03.944Z,100.00
2022-10-07T05:43:34.686Z,100.00
2022-10-07T05:46:04.170Z,100.00
2022-10-07T05:48:39.256Z,100.00
2022-10-07T05:51:09.991Z,100.00
2022-10-07T05:53:41.442Z,100.00
2022-10-07T05:56:12.864Z,100.00
2022-10-07T05:58:41.617Z,100.00
2022-10-07T06:01:15.891Z,100.00
2022-10-07T06:03:45.191Z,100.00
2022-10-07T06:06:15.332Z,100.00
2022-10-07T06:08:43.774Z,100.00
2022-10-07T06:11:31.452Z,100.00
2022-10-07T06:14:00.349Z,100.00
2022-10-07T06:16:28.699Z,100.00
2022-10-07T06:18:57.871Z,100.00
2022-10-07T06:21:28.549Z,100.00
2022-10-07T06:23:58.363Z,100.00
2022-10-07T06:26:28.099Z,100.00
2022-10-07T06:28:56.368Z,100.00
2022-10-07T06:31:25.976Z,100.00
2022-10-07T06:33:54.685Z,100.00
2022-10-07T06:36:22.853Z,100.00
2022-10-07T06:38:55.392Z,100.00
2022-10-07T06:41:24.625Z,100.00
2022-10-07T06:43:56.796Z,100.00
2022-10-07T06:46:25.654Z,100.00
2022-10-07T06:48:54.248Z,100.00
2022-10-07T06:51:23.377Z,100.00
2022-10-07T06:53:58.131Z,100.00
2022-10-07T06:56:27.075Z,100.00
2022-10-07T06:58:55.536Z,100.00
2022-10-07T07:01:25.737Z,100.00
2022-10-07T07:03:55.654Z,100.00
2022-10-07T07:06:24.483Z,100.00
2022-10-07T07:08:58.654Z,100.00
2022-10-07T07:11:41.914Z,100.00
2022-10-07T07:14:11.601Z,100.00
2022-10-07T07:16:40.111Z,100.00
2022-10-07T07:19:10.159Z,100.00
2022-10-07T07:21:41.173Z,100.00
2022-10-07T07:24:11.978Z,100.00
2022-10-07T07:26:40.600Z,100.00
2022-10-07T07:29:09.160Z,100.00
2022-10-07T07:31:40.367Z,100.00
2022-10-07T07:34:12.954Z,100.00
2022-10-07T07:36:45.693Z,100.00
2022-10-07T07:39:17.554Z,100.00
2022-10-07T07:41:47.964Z,100.00
2022-10-07T07:44:18.784Z,100.00
2022-10-07T07:46:52.386Z,100.00
2022-10-07T07:49:22.401Z,100.00
2022-10-07T07:51:51.525Z,100.00
2022-10-07T07:54:21.585Z,100.00
2022-10-07T07:56:50.834Z,100.00
2022-10-07T07:59:19.301Z,100.00
2022-10-07T08:01:48.114Z,100.00
2022-10-07T08:04:16.772Z,100.00
2022-10-07T08:06:44.990Z,100.00
2022-10-07T08:09:13.321Z,100.00
2022-10-07T08:11:45.523Z,100.00
2022-10-07T08:14:14.435Z,100.00
2022-10-07T08:16:43.691Z,100.00
2022-10-07T08:19:12.786Z,100.00
2022-10-07T08:21:41.286Z,100.00
2022-10-07T08:24:14.649Z,100.00
2022-10-07T08:26:44.915Z,100.00
2022-10-07T08:29:13.888Z,100.00
2022-10-07T08:31:42.694Z,100.00
2022-10-07T08:34:12.489Z,100.00
2022-10-07T08:36:41.462Z,100.00
2022-10-07T08:39:09.725Z,100.00
2022-10-07T08:41:57.569Z,100.00
2022-10-07T08:44:29.720Z,100.00
2022-10-07T08:47:03.729Z,100.00
2022-10-07T08:49:40.625Z,100.00
2022-10-07T08:52:28.412Z,100.00
2022-10-07T08:54:57.199Z,100.00
2022-10-07T08:57:39.016Z,100.00
2022-10-07T09:00:09.484Z,100.00
2022-10-07T09:02:49.277Z,100.00
2022-10-07T09:05:23.949Z,100.00
2022-10-07T09:07:55.925Z,100.00
2022-10-07T09:10:32.154Z,100.00
2022-10-07T09:13:07.492Z,100.00
2022-10-07T09:15:42.784Z,100.00
2022-10-07T09:18:21.637Z,100.00
2022-10-07T09:20:55.139Z,100.00
2022-10-07T09:23:26.434Z,100.00
2022-10-07T09:25:56.022Z,100.00
2022-10-07T09:28:30.113Z,100.00
2022-10-07T09:31:01.169Z,100.00
2022-10-07T09:33:30.592Z,100.00
2022-10-07T09:36:07.090Z,100.00
2022-10-07T09:38:39.024Z,100.00
2022-10-07T09:41:17.489Z,100.00
2022-10-07T09:43:59.065Z,100.00
2022-10-07T09:46:35.553Z,100.00
2022-10-07T09:49:05.795Z,100.00
2022-10-07T09:51:35.526Z,100.00
2022-10-07T09:54:06.747Z,100.00
2022-10-07T09:56:40.860Z,100.00
2022-10-07T09:59:20.047Z,100.00
2022-10-07T10:01:55.160Z,100.00
2022-10-07T10:04:29.478Z,100.00
2022-10-07T10:07:04.860Z,100.00
2022-10-07T10:09:36.306Z,100.00
2022-10-07T10:12:13.998Z,100.00
2022-10-07T10:14:51.871Z,100.00
2022-10-07T10:17:31.843Z,100.00
2022-10-07T10:20:31.767Z,100.00
2022-10-07T10:23:01.811Z,100.00
2022-10-07T10:26:07.060Z,100.00
2022-10-07T10:28:45.532Z,100.00
2022-10-07T10:31:26.216Z,100.00
2022-10-07T10:34:01.910Z,100.00
2022-10-07T10:36:34.127Z,100.00
2022-10-07T10:39:05.890Z,100.00
2022-10-07T10:41:44.441Z,100.00
2022-10-07T10:44:34.428Z,100.00
2022-10-07T10:47:15.981Z,95.17
2022-10-07T10:50:00.907Z,93.94
2022-10-07T10:52:40.252Z,89.91
2022-10-07T10:55:23.797Z,87.27
2022-10-07T10:58:03.910Z,88.71
2022-10-07T11:00:41.018Z,88.00
2022-10-07T11:03:42.422Z,93.34
2022-10-07T11:06:17.329Z,89.60
2022-10-07T11:08:47.746Z,89.46
2022-10-07T11:11:20.957Z,86.39
2022-10-07T11:13:54.654Z,83.47
2022-10-07T11:16:28.026Z,78.88
2022-10-07T11:19:02.668Z,80.06
2022-10-07T11:21:40.185Z,77.48
2022-10-07T11:24:17.017Z,77.31
2022-10-07T11:26:52.422Z,73.82
2022-10-07T11:29:31.396Z,74.89
2022-10-07T11:32:10.122Z,86.66
2022-10-07T11:34:48.944Z,81.71
2022-10-07T11:37:26.951Z,80.76
2022-10-07T11:39:55.482Z,76.08
2022-10-07T11:42:27.536Z,72.57
2022-10-07T11:45:03.034Z,69.55
2022-10-07T11:47:36.710Z,67.12
2022-10-07T11:50:11.393Z,67.65
2022-10-07T11:52:43.727Z,68.71
2022-10-07T11:55:22.514Z,72.10
2022-10-07T11:57:55.803Z,67.35
2022-10-07T12:00:29.259Z,63.77
2022-10-07T12:03:01.158Z,73.45
2022-10-07T12:05:59.271Z,71.81
2022-10-07T12:08:37.674Z,68.34
2022-10-07T12:11:42.013Z,65.69
2022-10-07T12:14:35.739Z,72.36
2022-10-07T12:17:21.493Z,65.71
2022-10-07T12:20:29.504Z,70.01
2022-10-07T12:23:40.615Z,76.96
2022-10-07T12:26:53.272Z,80.23
2022-10-07T12:29:58.727Z,78.43
2022-10-07T12:32:58.116Z,82.78
2022-10-07T12:35:59.772Z,77.55
2022-10-07T12:38:29.931Z,79.29
2022-10-07T12:41:19.435Z,80.30
2022-10-07T12:43:53.937Z,77.54
2022-10-07T12:46:27.605Z,73.58
2022-10-07T12:49:02.137Z,74.15
2022-10-07T12:51:39.706Z,73.98
2022-10-07T12:54:17.936Z,72.14
2022-10-07T12:56:52.576Z,67.97
2022-10-07T12:59:49.394Z,67.13
2022-10-07T13:02:43.876Z,70.57
2022-10-07T13:05:55.163Z,74.64
2022-10-07T13:09:11.594Z,80.95
2022-10-07T13:12:00.106Z,74.29
2022-10-07T13:14:34.394Z,78.38
2022-10-07T13:17:20.066Z,77.82
2022-10-07T13:19:57.763Z,73.92
2022-10-07T13:22:30.964Z,68.39
2022-10-07T13:25:03.843Z,66.63
2022-10-07T13:27:38.128Z,66.00
2022-10-07T13:30:09.887Z,62.77
2022-10-07T13:32:40.073Z,59.83
2022-10-07T13:35:32.421Z,59.32
2022-10-07T13:38:04.415Z,59.83
2022-10-07T13:40:36.042Z,59.14
2022-10-07T13:43:20.833Z,55.39
2022-10-07T13:45:49.701Z,60.32
2022-10-07T13:48:19.640Z,58.73
2022-10-07T13:50:50.783Z,59.24
2022-10-07T13:53:26.080Z,63.73
2022-10-07T13:56:07.282Z,69.30
2022-10-07T13:58:38.887Z,89.96
2022-10-07T14:01:08.337Z,86.85
2022-10-07T14:03:36.987Z,81.00
2022-10-07T14:06:06.016Z,80.56
2022-10-07T14:08:34.587Z,82.00
2022-10-07T14:11:09.640Z,83.83
2022-10-07T14:13:47.229Z,85.48
2022-10-07T14:16:23.161Z,83.95
2022-10-07T14:18:54.676Z,84.09
2022-10-07T14:21:23.344Z,85.43
2022-10-07T14:23:52.165Z,86.97
2022-10-07T14:26:43.682Z,87.41
2022-10-07T14:29:41.228Z,82.46
2022-10-07T14:32:36.603Z,78.04
2022-10-07T14:35:23.894Z,74.96
2022-10-07T14:37:56.225Z,78.02
2022-10-07T14:40:26.699Z,79.23
2022-10-07T14:42:56.867Z,82.88
2022-10-07T14:45:27.225Z,81.73
2022-10-07T14:47:55.883Z,80.13
2022-10-07T14:50:24.613Z,79.45
2022-10-07T14:52:54.649Z,76.76
2022-10-07T14:55:27.945Z,76.93
2022-10-07T14:57:57.990Z,76.77
2022-10-07T15:00:34.901Z,76.03
2022-10-07T15:03:07.595Z,78.36
2022-10-07T15:05:36.595Z,75.59
2022-10-07T15:08:05.173Z,72.20
2022-10-07T15:10:34.761Z,73.43
2022-10-07T15:13:13.556Z,76.38
2022-10-07T15:15:47.146Z,80.77
2022-10-07T15:18:16.678Z,90.88
2022-10-07T15:20:45.044Z,85.06
2022-10-07T15:23:15.060Z,76.70
2022-10-07T15:25:47.123Z,68.98
2022-10-07T15:28:17.685Z,71.34
2022-10-07T15:30:48.526Z,68.99
2022-10-07T15:33:19.463Z,66.33
2022-10-07T15:35:48.913Z,64.77
2022-10-07T15:38:18.086Z,64.38
2022-10-07T15:41:00.076Z,65.08
2022-10-07T15:43:29.032Z,67.03
2022-10-07T15:46:03.065Z,67.82
2022-10-07T15:48:33.277Z,72.92
2022-10-07T15:51:02.149Z,74.96
2022-10-07T15:53:32.849Z,73.95
2022-10-07T15:56:01.901Z,74.96
2022-10-07T15:58:32.050Z,78.51
2022-10-07T16:01:05.050Z,80.54
2022-10-07T16:03:40.374Z,82.77
2022-10-07T16:06:11.425Z,84.65
2022-10-07T16:08:40.232Z,84.97
2022-10-07T16:11:10.915Z,84.54
2022-10-07T16:13:40.869Z,84.90
2022-10-07T16:16:12.441Z,88.17
2022-10-07T16:18:41.880Z,91.85
2022-10-07T16:21:15.367Z,93.97
2022-10-07T16:23:48.831Z,98.48
2022-10-07T16:26:22.383Z,100.00
2022-10-07T16:29:10.214Z,100.00
2022-10-07T16:31:44.980Z,100.00
2022-10-07T16:34:21.682Z,100.00
2022-10-07T16:36:54.522Z,100.00
2022-10-07T16:39:25.636Z,100.00
2022-10-07T16:41:55.341Z,100.00
2022-10-07T16:44:24.904Z,100.00
2022-10-07T16:46:57.530Z,100.00
2022-10-07T16:49:27.849Z,100.00
2022-10-07T16:51:57.256Z,100.00
2022-10-07T16:54:26.127Z,100.00
2022-10-07T16:56:54.789Z,100.00
2022-10-07T16:59:26.289Z,100.00
2022-10-07T17:02:03.573Z,100.00
2022-10-07T17:04:34.849Z,100.00
2022-10-07T17:07:06.352Z,100.00
2022-10-07T17:09:36.419Z,100.00
2022-10-07T17:12:07.240Z,100.00
2022-10-07T17:14:39.293Z,100.00
2022-10-07T17:17:10.666Z,100.00
2022-10-07T17:19:40.709Z,100.00
2022-10-07T17:22:11.261Z,100.00
2022-10-07T17:24:40.544Z,100.00
2022-10-07T17:27:09.323Z,100.00
2022-10-07T17:29:38.662Z,100.00
2022-10-07T17:32:11.617Z,100.00
2022-10-07T17:34:45.296Z,100.00
2022-10-07T17:37:14.937Z,100.00
2022-10-07T17:39:44.348Z,100.00
2022-10-07T17:42:13.884Z,100.00
2022-10-07T17:44:42.919Z,100.00
2022-10-07T17:47:14.173Z,100.00
2022-10-07T17:49:42.953Z,100.00
2022-10-07T17:52:13.640Z,100.00
2022-10-07T17:54:44.108Z,100.00
2022-10-07T17:57:14.808Z,100.00
2022-10-07T17:59:47.366Z,100.00
2022-10-07T18:02:18.157Z,100.00
2022-10-07T18:04:47.136Z,100.00
2022-10-07T18:07:17.711Z,100.00
2022-10-07T18:09:47.681Z,100.00
2022-10-07T18:12:48.208Z,100.00
2022-10-07T18:15:21.374Z,100.00
2022-10-07T18:17:52.835Z,100.00
2022-10-07T18:20:23.261Z,100.00
2022-10-07T18:22:57.589Z,100.00
2022-10-07T18:25:26.409Z,100.00
2022-10-07T18:27:54.530Z,100.00
2022-10-07T18:30:22.742Z,100.00
2022-10-07T18:32:52.851Z,100.00
2022-10-07T18:35:26.264Z,100.00
2022-10-07T18:37:55.808Z,100.00
2022-10-07T18:40:25.046Z,100.00
2022-10-07T18:42:53.921Z,100.00
2022-10-07T18:45:25.022Z,100.00
2022-10-07T18:47:55.357Z,100.00
2022-10-07T18:50:24.788Z,100.00
2022-10-07T18:52:56.010Z,100.00
2022-10-07T18:55:24.721Z,100.00
2022-10-07T18:57:55.854Z,100.00
2022-10-07T19:00:24.699Z,100.00
2022-10-07T19:02:57.178Z,100.00
2022-10-07T19:05:25.709Z,100.00
2022-10-07T19:07:54.193Z,100.00
2022-10-07T19:10:23.155Z,100.00
2022-10-07T19:13:09.201Z,100.00
2022-10-07T19:15:41.304Z,100.00
2022-10-07T19:18:11.415Z,100.00
2022-10-07T19:20:40.822Z,100.00
2022-10-07T19:23:11.782Z,100.00
2022-10-07T19:25:48.665Z,100.00
2022-10-07T19:28:17.439Z,100.00
2022-10-07T19:30:46.109Z,100.00
2022-10-07T19:33:16.466Z,100.00
2022-10-07T19:35:47.531Z,100.00
2022-10-07T19:38:16.108Z,100.00
2022-10-07T19:40:45.941Z,100.00
2022-10-07T19:43:15.607Z,100.00
2022-10-07T19:45:45.465Z,100.00
2022-10-07T19:48:16.252Z,100.00
2022-10-07T19:50:46.310Z,100.00
2022-10-07T19:53:15.657Z,100.00
2022-10-07T19:55:46.544Z,100.00
2022-10-07T19:58:15.046Z,100.00
2022-10-07T20:00:46.517Z,100.00
2022-10-07T20:03:16.790Z,100.00
2022-10-07T20:05:45.529Z,100.00
2022-10-07T20:08:17.968Z,100.00
2022-10-07T20:10:46.551Z,100.00
2022-10-07T20:13:17.718Z,100.00
2022-10-07T20:15:50.882Z,100.00
2022-10-07T20:18:21.476Z,100.00
2022-10-07T20:20:50.945Z,100.00
2022-10-07T20:23:21.328Z,100.00
2022-10-07T20:25:49.551Z,100.00
2022-10-07T20:28:18.059Z,100.00
2022-10-07T20:30:46.561Z,100.00
2022-10-07T20:33:15.575Z,100.00
2022-10-07T20:35:46.666Z,100.00
2022-10-07T20:38:15.472Z,100.00
2022-10-07T20:41:00.889Z,100.00
2022-10-07T20:43:30.096Z,100.00
2022-10-07T20:45:59.600Z,100.00
2022-10-07T20:48:32.196Z,100.00
2022-10-07T20:51:08.541Z,100.00
2022-10-07T20:53:37.117Z,100.00
2022-10-07T20:56:07.284Z,100.00
2022-10-07T20:58:37.727Z,100.00
2022-10-07T21:01:08.953Z,100.00
2022-10-07T21:03:38.286Z,100.00
2022-10-07T21:06:08.789Z,100.00
2022-10-07T21:08:37.186Z,100.00
2022-10-07T21:11:07.988Z,100.00
2022-10-07T21:13:36.515Z,100.00
2022-10-07T21:16:07.702Z,100.00
2022-10-07T21:18:38.152Z,100.00
2022-10-07T21:21:08.933Z,100.00
2022-10-07T21:23:38.109Z,100.00
2022-10-07T21:26:08.416Z,100.00
2022-10-07T21:28:38.111Z,100.00
2022-10-07T21:31:09.024Z,100.00
2022-10-07T21:33:39.557Z,100.00
2022-10-07T21:36:19.097Z,100.00
2022-10-07T21:38:53.159Z,100.00
2022-10-07T21:41:24.261Z,100.00
2022-10-07T21:43:54.224Z,100.00
2022-10-07T21:46:25.612Z,100.00
2022-10-07T21:48:55.585Z,100.00
2022-10-07T21:51:29.796Z,100.00
2022-10-07T21:53:59.667Z,100.00
2022-10-07T21:56:32.124Z,100.00
2022-10-07T21:59:04.103Z,100.00
2022-10-07T22:01:33.710Z,100.00
2022-10-07T22:04:06.673Z,100.00
2022-10-07T22:06:55.651Z,100.00
2022-10-07T22:09:25.021Z,100.00
2022-10-07T22:11:56.457Z,100.00
2022-10-07T22:14:27.844Z,100.00
2022-10-07T22:16:56.807Z,100.00
2022-10-07T22:19:25.540Z,100.00
2022-10-07T22:21:55.561Z,100.00
2022-10-07T22:24:25.131Z,100.00
2022-10-07T22:26:53.720Z,100.00
2022-10-07T22:29:23.593Z,100.00
2022-10-07T22:31:52.192Z,100.00
2022-10-07T22:34:50.143Z,100.00
2022-10-07T22:37:20.316Z,100.00
2022-10-07T22:39:49.157Z,100.00
2022-10-07T22:42:18.626Z,100.00
2022-10-07T22:44:46.788Z,100.00
2022-10-07T22:47:16.576Z,100.00
2022-10-07T22:49:45.499Z,100.00
2022-10-07T22:52:15.865Z,100.00
2022-10-07T22:54:46.499Z,100.00
2022-10-07T22:57:16.083Z,100.00
2022-10-07T22:59:45.174Z,100.00
2022-10-07T23:02:13.645Z,100.00
2022-10-07T23:04:42.461Z,100.00
2022-10-07T23:07:13.352Z,100.00
2022-10-07T23:09:42.064Z,100.00
2022-10-07T23:12:12.496Z,100.00
2022-10-07T23:14:41.961Z,100.00
2022-10-07T23:17:11.272Z,100.00
2022-10-07T23:19:40.061Z,100.00
2022-10-07T23:22:12.336Z,100.00
2022-10-07T23:24:41.006Z,100.00
2022-10-07T23:27:10.470Z,100.00
2022-10-07T23:29:40.986Z,100.00
2022-10-07T23:32:10.269Z,100.00
2022-10-07T23:34:40.187Z,100.00
2022-10-07T23:37:09.628Z,100.00
2022-10-07T23:39:37.781Z,100.00
2022-10-07T23:42:08.894Z,100.00
2022-10-07T23:44:37.569Z,100.00
2022-10-07T23:47:09.966Z,100.00
2022-10-07T23:49:39.264Z,100.00
2022-10-07T23:52:07.999Z,100.00
2022-10-07T23:54:36.271Z,100.00
2022-10-07T23:57:04.529Z,100.00
2022-10-07T23:59:34.245Z,100.00
